createdAt,value
2022-07-27T00:01:28.008Z,7.80
2022-07-27T00:03:56.531Z,8.63
2022-07-27T00:06:25.109Z,8.23
2022-07-27T00:08:53.350Z,6.05
2022-07-27T00:11:23.032Z,9.98
2022-07-27T00:13:51.364Z,9.48
2022-07-27T00:16:19.757Z,8.90
2022-07-27T00:18:48.123Z,9.05
2022-07-27T00:21:16.662Z,11.05
2022-07-27T00:23:45.068Z,8.50
2022-07-27T00:26:13.422Z,9.32
2022-07-27T00:28:43.126Z,9.45
2022-07-27T00:31:11.542Z,10.20
2022-07-27T00:33:40.005Z,7.60
2022-07-27T00:36:08.566Z,11.35
2022-07-27T00:38:36.948Z,9.30
2022-07-27T00:41:05.252Z,6.78
2022-07-27T00:43:34.107Z,8.27
2022-07-27T00:46:04.898Z,7.97
2022-07-27T00:48:33.698Z,9.20
2022-07-27T00:51:02.462Z,10.10
2022-07-27T00:53:30.792Z,7.97
2022-07-27T00:56:00.254Z,10.15
2022-07-27T00:58:28.672Z,8.23
2022-07-27T01:00:57.164Z,8.57
2022-07-27T01:03:27.776Z,7.97
2022-07-27T01:06:01.317Z,8.65
2022-07-27T01:08:30.800Z,9.80
2022-07-27T01:11:00.331Z,9.45
2022-07-27T01:13:31.141Z,11.35
2022-07-27T01:16:00.288Z,9.75
2022-07-27T01:18:32.486Z,7.55
2022-07-27T01:21:02.766Z,7.70
2022-07-27T01:23:33.655Z,10.27
2022-07-27T01:26:02.612Z,12.40
2022-07-27T01:28:31.245Z,7.93
2022-07-27T01:30:59.660Z,9.45
2022-07-27T01:33:28.006Z,13.10
2022-07-27T01:41:27.298Z,7.13
2022-07-27T01:43:55.403Z,8.27
2022-07-27T01:46:23.511Z,11.52
2022-07-27T01:48:51.761Z,8.27
2022-07-27T01:51:19.861Z,6.40
2022-07-27T01:53:49.457Z,8.93
2022-07-27T01:56:17.737Z,9.23
2022-07-27T01:58:45.808Z,6.05
2022-07-27T02:01:14.002Z,8.88
2022-07-27T02:03:42.268Z,7.22
2022-07-27T02:06:10.743Z,7.40
2022-07-27T02:08:38.848Z,10.73
2022-07-27T02:11:37.199Z,12.52
2022-07-27T02:14:05.798Z,10.23
2022-07-27T02:16:34.055Z,8.88
2022-07-27T02:19:04.694Z,8.20
2022-07-27T02:21:33.520Z,7.25
2022-07-27T02:24:01.576Z,9.43
2022-07-27T02:26:31.027Z,8.23
2022-07-27T02:28:59.092Z,10.52
2022-07-27T02:31:32.756Z,9.10
2022-07-27T02:34:01.679Z,9.65
2022-07-27T02:36:30.508Z,10.55
2022-07-27T02:39:00.054Z,6.28
2022-07-27T02:41:30.504Z,9.18
2022-07-27T02:43:58.584Z,6.85
2022-07-27T02:46:26.759Z,12.00
2022-07-27T02:48:54.982Z,11.20
2022-07-27T02:51:23.083Z,8.15
2022-07-27T02:53:51.320Z,10.13
2022-07-27T02:56:19.410Z,9.50
2022-07-27T02:58:56.800Z,10.18
2022-07-27T03:01:24.979Z,11.02
2022-07-27T03:03:53.164Z,9.13
2022-07-27T03:06:25.908Z,10.05
2022-07-27T03:08:54.268Z,10.20
2022-07-27T03:11:22.492Z,19.17
2022-07-27T03:13:50.589Z,11.52
2022-07-27T03:16:20.601Z,11.68
2022-07-27T03:18:49.795Z,8.60
2022-07-27T03:21:18.209Z,11.00
2022-07-27T03:23:46.536Z,9.55
2022-07-27T03:26:14.563Z,9.82
2022-07-27T03:28:47.735Z,12.45
2022-07-27T03:31:15.946Z,11.90
2022-07-27T03:33:45.426Z,11.25
2022-07-27T03:36:13.525Z,12.38
2022-07-27T03:38:41.755Z,11.30
2022-07-27T03:41:09.873Z,10.07
2022-07-27T03:43:37.925Z,10.30
2022-07-27T03:46:06.183Z,11.82
2022-07-27T03:48:34.294Z,10.02
2022-07-27T03:51:03.867Z,12.60
2022-07-27T03:53:31.928Z,13.05
2022-07-27T03:55:59.997Z,14.95
2022-07-27T03:58:28.039Z,10.43
2022-07-27T04:00:56.357Z,14.02
2022-07-27T04:03:24.498Z,18.20
2022-07-27T04:05:53.148Z,14.27
2022-07-27T04:08:22.683Z,16.38
2022-07-27T04:10:56.894Z,11.02
2022-07-27T04:13:32.666Z,13.25
2022-07-27T04:16:02.134Z,13.10
2022-07-27T04:18:30.771Z,12.05
2022-07-27T04:20:59.422Z,13.57
2022-07-27T04:23:28.962Z,12.70
2022-07-27T04:25:57.061Z,10.30
2022-07-27T04:28:25.113Z,16.27
2022-07-27T04:30:55.683Z,15.13
2022-07-27T04:33:34.837Z,12.90
2022-07-27T04:36:02.952Z,17.60
2022-07-27T04:38:32.424Z,20.45
2022-07-27T04:41:00.517Z,17.42
2022-07-27T04:43:29.633Z,16.70
2022-07-27T04:45:58.062Z,17.25
2022-07-27T04:48:26.187Z,16.33
2022-07-27T04:50:54.223Z,17.83
2022-07-27T04:53:22.308Z,18.55
2022-07-27T04:55:51.724Z,20.25
2022-07-27T04:58:19.784Z,20.02
2022-07-27T05:00:48.320Z,18.40
2022-07-27T05:03:16.553Z,15.77
2022-07-27T05:05:49.891Z,15.38
2022-07-27T05:08:19.407Z,18.58
2022-07-27T05:10:47.986Z,15.68
2022-07-27T05:13:17.607Z,12.88
2022-07-27T05:15:54.786Z,13.55
2022-07-27T05:18:24.055Z,17.98
2022-07-27T05:20:52.180Z,16.40
2022-07-27T05:23:20.368Z,15.23
2022-07-27T05:25:48.475Z,11.90
2022-07-27T05:28:17.961Z,10.98
2022-07-27T05:30:46.060Z,14.60
2022-07-27T05:33:14.226Z,12.15
2022-07-27T05:35:42.348Z,13.13
2022-07-27T05:38:10.525Z,13.65
2022-07-27T05:40:39.529Z,17.15
2022-07-27T05:43:07.615Z,9.98
2022-07-27T05:45:38.235Z,11.00
2022-07-27T05:48:06.950Z,6.88
2022-07-27T05:50:35.173Z,10.05
2022-07-27T05:53:03.751Z,11.90
2022-07-27T05:55:31.874Z,14.57
2022-07-27T05:58:00.032Z,16.13
2022-07-27T06:00:28.433Z,16.15
2022-07-27T06:02:57.915Z,9.05
2022-07-27T06:05:26.028Z,17.60
2022-07-27T06:08:03.603Z,8.75
2022-07-27T06:10:33.442Z,9.20
2022-07-27T06:13:03.261Z,8.68
2022-07-27T06:15:33.170Z,12.52
2022-07-27T06:18:03.828Z,9.77
2022-07-27T06:20:32.467Z,12.43
2022-07-27T06:23:08.084Z,10.57
2022-07-27T06:25:37.382Z,11.43
2022-07-27T06:28:07.058Z,8.80
2022-07-27T06:30:35.446Z,13.32
2022-07-27T06:33:06.167Z,10.40
2022-07-27T06:36:15.229Z,13.13
2022-07-27T06:42:57.206Z,13.50
2022-07-27T06:46:36.027Z,10.48
2022-07-27T06:49:33.312Z,11.80
2022-07-27T06:52:03.146Z,13.77
2022-07-27T06:54:38.895Z,8.63
2022-07-27T07:01:12.960Z,8.32
2022-07-27T07:04:03.974Z,11.93
2022-07-27T07:07:20.226Z,7.90
2022-07-27T07:14:17.855Z,12.10
2022-07-27T07:17:31.565Z,10.52
2022-07-27T07:36:24.163Z,9.77
2022-07-27T07:39:55.589Z,9.85
2022-07-27T07:42:55.812Z,11.25
2022-07-27T07:45:27.941Z,9.13
2022-07-27T07:48:57.445Z,13.57
2022-07-27T07:51:35.300Z,14.23
2022-07-27T07:54:03.657Z,10.48
2022-07-27T07:56:31.983Z,7.07
2022-07-27T07:59:04.991Z,9.93
2022-07-27T08:01:33.539Z,10.43
2022-07-27T08:04:01.923Z,7.28
2022-07-27T08:06:30.893Z,9.23
2022-07-27T08:08:59.254Z,7.60
2022-07-27T08:11:28.263Z,7.85
2022-07-27T08:13:56.521Z,9.23
2022-07-27T08:16:26.316Z,10.63
2022-07-27T08:18:54.830Z,14.07
2022-07-27T08:21:23.268Z,8.85
2022-07-27T08:23:51.761Z,5.45
2022-07-27T08:26:20.128Z,7.80
2022-07-27T08:28:50.717Z,10.07
2022-07-27T08:31:24.226Z,13.30
2022-07-27T08:33:56.191Z,11.07
2022-07-27T08:36:24.598Z,12.07
2022-07-27T08:38:52.921Z,10.75
2022-07-27T08:41:25.429Z,10.13
2022-07-27T08:43:55.105Z,8.80
2022-07-27T08:46:23.979Z,10.60
2022-07-27T08:48:53.072Z,10.65
2022-07-27T08:51:25.473Z,9.13
2022-07-27T08:53:54.519Z,8.82
2022-07-27T08:56:22.913Z,14.60
2022-07-27T08:58:52.011Z,9.85
2022-07-27T09:01:20.598Z,12.90
2022-07-27T09:03:49.465Z,7.80
2022-07-27T09:06:43.877Z,10.65
2022-07-27T09:09:14.017Z,7.65
2022-07-27T09:11:42.720Z,8.63
2022-07-27T09:14:12.439Z,10.85
2022-07-27T09:17:28.472Z,10.20
2022-07-27T09:19:29.415Z,9.85
2022-07-27T09:21:59.072Z,6.70
2022-07-27T09:24:46.064Z,7.90
2022-07-27T09:27:15.583Z,7.05
2022-07-27T09:29:43.989Z,8.38
2022-07-27T09:32:16.229Z,5.68
2022-07-27T09:34:44.777Z,9.25
2022-07-27T09:37:25.457Z,8.98
2022-07-27T09:40:12.402Z,8.20
2022-07-27T09:43:07.357Z,9.63
2022-07-27T09:45:34.458Z,6.90
2022-07-27T09:48:15.366Z,3.78
2022-07-27T09:51:01.494Z,6.45
2022-07-27T09:53:43.583Z,6.15
2022-07-27T09:56:16.295Z,10.30
2022-07-27T09:58:47.208Z,7.97
2022-07-27T10:01:17.397Z,7.03
2022-07-27T10:03:46.999Z,5.55
2022-07-27T10:06:15.427Z,5.88
2022-07-27T10:08:47.530Z,7.03
2022-07-27T10:11:16.892Z,4.90
2022-07-27T10:13:46.013Z,7.70
2022-07-27T10:16:16.383Z,4.60
2022-07-27T10:18:56.113Z,7.43
2022-07-27T10:21:25.654Z,10.40
2022-07-27T10:24:00.940Z,3.67
2022-07-27T10:26:36.086Z,8.35
2022-07-27T10:29:06.688Z,7.45
2022-07-27T10:31:39.923Z,5.45
2022-07-27T10:34:10.616Z,3.20
2022-07-27T10:36:53.775Z,6.78
2022-07-27T10:39:51.235Z,6.90
2022-07-27T10:42:22.319Z,4.45
2022-07-27T10:44:56.115Z,4.80
2022-07-27T10:47:36.729Z,6.38
2022-07-27T10:50:27.127Z,4.85
2022-07-27T10:52:57.442Z,7.00
2022-07-27T10:55:46.615Z,6.60
2022-07-27T10:58:50.598Z,4.90
2022-07-27T11:01:20.408Z,9.57
2022-07-27T11:03:56.192Z,6.10
2022-07-27T11:06:39.835Z,5.28
2022-07-27T11:10:02.946Z,6.25
2022-07-27T11:12:10.125Z,6.45
2022-07-27T11:14:49.405Z,11.73
2022-07-27T11:20:08.974Z,7.07
2022-07-27T11:23:20.832Z,10.90
2022-07-27T11:25:31.671Z,5.13
2022-07-27T11:28:08.380Z,7.78
2022-07-27T11:30:37.316Z,5.00
2022-07-27T11:33:07.328Z,8.20
2022-07-27T11:35:35.805Z,3.17
2022-07-27T11:38:06.680Z,4.40
2022-07-27T11:40:59.763Z,4.63
2022-07-27T11:43:38.181Z,9.10
2022-07-27T11:46:15.425Z,4.40
2022-07-27T11:49:08.740Z,9.50
2022-07-27T11:51:39.313Z,7.57
2022-07-27T11:54:09.758Z,5.65
2022-07-27T11:56:40.583Z,5.70
2022-07-27T11:59:16.322Z,8.57
2022-07-27T12:01:48.331Z,12.27
2022-07-27T12:04:22.859Z,7.10
2022-07-27T12:06:59.582Z,7.18
2022-07-27T12:09:28.689Z,6.93
2022-07-27T12:12:12.473Z,5.35
2022-07-27T12:14:45.919Z,6.28
2022-07-27T12:17:26.953Z,8.13
2022-07-27T12:19:58.604Z,5.80
2022-07-27T12:22:29.135Z,5.25
2022-07-27T12:24:58.036Z,3.58
2022-07-27T12:27:27.494Z,6.88
2022-07-27T12:30:10.557Z,7.97
2022-07-27T12:32:41.304Z,7.80
2022-07-27T12:35:22.913Z,7.28
2022-07-27T12:37:58.321Z,9.40
2022-07-27T12:40:26.705Z,8.88
2022-07-27T12:43:00.296Z,7.65
2022-07-27T12:45:38.301Z,6.82
2022-07-27T12:48:11.762Z,11.88
2022-07-27T12:50:41.051Z,7.43
2022-07-27T12:53:10.744Z,8.07
2022-07-27T12:55:39.354Z,6.20
2022-07-27T12:58:10.865Z,6.43
2022-07-27T13:00:40.880Z,9.88
2022-07-27T13:03:10.505Z,8.68
2022-07-27T13:05:38.877Z,5.47
2022-07-27T13:08:07.702Z,10.30
2022-07-27T13:10:37.380Z,10.43
2022-07-27T13:13:06.478Z,6.97
2022-07-27T13:15:35.020Z,4.82
2022-07-27T13:18:04.821Z,12.13
2022-07-27T13:20:33.350Z,12.43
2022-07-27T13:23:01.726Z,11.55
2022-07-27T13:25:30.113Z,5.50
2022-07-27T13:27:58.504Z,6.50
2022-07-27T13:30:26.933Z,4.20
2022-07-27T13:32:55.307Z,7.07
2022-07-27T13:35:25.041Z,4.85
2022-07-27T13:37:53.648Z,4.72
2022-07-27T13:40:22.050Z,8.77
2022-07-27T13:42:50.490Z,4.25
2022-07-27T13:45:18.856Z,4.50
2022-07-27T13:47:47.211Z,5.03
2022-07-27T13:50:19.529Z,10.95
2022-07-27T13:52:50.226Z,5.57
2022-07-27T13:55:20.691Z,4.90
2022-07-27T13:57:50.814Z,8.38
2022-07-27T14:00:19.277Z,5.63
2022-07-27T14:02:47.685Z,7.40
2022-07-27T14:05:18.409Z,6.63
2022-07-27T14:07:52.202Z,7.25
2022-07-27T14:10:32.848Z,7.22
2022-07-27T14:13:07.467Z,6.75
2022-07-27T14:15:50.497Z,5.97
2022-07-27T14:18:22.387Z,6.28
2022-07-27T14:20:50.840Z,4.10
2022-07-27T14:23:21.079Z,4.75
2022-07-27T14:25:49.468Z,9.63
2022-07-27T14:28:17.869Z,4.82
2022-07-27T14:30:46.628Z,5.45
2022-07-27T14:33:14.968Z,5.78
2022-07-27T14:35:43.449Z,8.00
2022-07-27T14:47:34.768Z,5.53
2022-07-27T15:04:10.795Z,6.97
2022-07-27T15:36:01.293Z,7.20
2022-07-27T15:47:00.212Z,5.78
2022-07-27T15:53:14.091Z,5.65
2022-07-27T15:59:36.498Z,8.55
2022-07-27T16:02:05.225Z,6.60
2022-07-27T16:04:33.315Z,10.70
2022-07-27T16:07:01.417Z,6.55
2022-07-27T16:09:31.047Z,7.82
2022-07-27T16:11:59.152Z,2.63
2022-07-27T16:14:27.256Z,8.15
2022-07-27T16:16:55.361Z,5.15
2022-07-27T16:19:23.493Z,6.43
2022-07-27T16:21:53.940Z,6.35
2022-07-27T16:24:24.509Z,4.32
2022-07-27T16:26:54.426Z,8.18
2022-07-27T16:29:22.745Z,7.15
2022-07-27T16:31:51.240Z,4.60
2022-07-27T16:34:19.397Z,8.07
2022-07-27T16:36:49.059Z,7.18
2022-07-27T16:39:17.319Z,6.85
2022-07-27T16:41:47.234Z,10.02
2022-07-27T16:44:17.320Z,8.55
2022-07-27T16:46:45.998Z,7.38
2022-07-27T16:49:14.843Z,10.07
2022-07-27T16:51:43.367Z,9.02
2022-07-27T16:54:11.628Z,5.78
2022-07-27T16:56:39.840Z,4.63
2022-07-27T16:59:07.944Z,8.85
2022-07-27T17:01:37.551Z,7.18
2022-07-27T17:04:05.996Z,10.35
2022-07-27T17:06:35.257Z,4.07
2022-07-27T17:09:03.426Z,7.40
2022-07-27T17:11:31.678Z,6.97
2022-07-27T17:14:07.084Z,4.38
2022-07-27T17:16:37.656Z,5.10
2022-07-27T17:19:05.786Z,4.10
2022-07-27T17:21:33.924Z,7.13
2022-07-27T17:24:02.112Z,5.97
2022-07-27T17:26:30.235Z,5.75
2022-07-27T17:28:58.586Z,6.82
2022-07-27T17:31:27.166Z,3.80
2022-07-27T17:33:56.931Z,3.05
2022-07-27T17:36:26.173Z,5.95
2022-07-27T17:38:54.338Z,6.32
2022-07-27T17:41:25.224Z,7.15
2022-07-27T17:43:54.481Z,3.55
2022-07-27T17:46:24.615Z,5.57
2022-07-27T17:48:53.934Z,8.75
2022-07-27T17:51:25.460Z,8.32
2022-07-27T17:53:53.768Z,4.15
2022-07-27T17:56:21.861Z,7.90
2022-07-27T17:58:50.324Z,6.45
2022-07-27T18:01:46.177Z,7.88
2022-07-27T18:11:44.117Z,8.52
2022-07-27T18:14:17.121Z,5.80
2022-07-27T18:16:45.396Z,5.88
2022-07-27T18:19:13.884Z,7.40
2022-07-27T18:21:42.223Z,7.80
2022-07-27T18:24:10.724Z,5.75
2022-07-27T18:26:40.418Z,4.85
2022-07-27T18:29:08.685Z,5.70
2022-07-27T18:31:36.928Z,3.88
2022-07-27T18:34:10.673Z,6.22
2022-07-27T18:36:42.413Z,6.47
2022-07-27T18:39:10.811Z,8.18
2022-07-27T18:41:40.751Z,4.72
2022-07-27T18:44:08.881Z,6.22
2022-07-27T18:46:40.062Z,7.15
2022-07-27T18:49:17.788Z,4.18
2022-07-27T18:51:56.533Z,5.85
2022-07-27T18:54:24.658Z,4.20
2022-07-27T18:56:56.164Z,6.45
2022-07-27T18:59:24.544Z,7.22
2022-07-27T19:01:58.366Z,8.77
2022-07-27T19:04:26.532Z,4.82
2022-07-27T19:06:54.597Z,7.78
2022-07-27T19:09:22.644Z,6.35
2022-07-27T19:11:51.116Z,5.93
2022-07-27T19:14:22.944Z,6.47
2022-07-27T19:16:51.308Z,7.65
2022-07-27T19:19:23.123Z,5.78
2022-07-27T19:21:52.322Z,5.82
2022-07-27T19:24:20.422Z,7.45
2022-07-27T19:26:48.519Z,6.25
2022-07-27T19:29:18.039Z,7.55
2022-07-27T19:31:50.813Z,5.20
2022-07-27T19:34:21.211Z,7.50
2022-07-27T19:36:49.330Z,6.93
2022-07-27T19:39:17.673Z,8.05
2022-07-27T19:41:45.785Z,9.00
2022-07-27T19:44:15.050Z,7.10
2022-07-27T19:46:44.957Z,7.07
2022-07-27T19:49:18.443Z,4.63
2022-07-27T19:51:46.783Z,5.43
2022-07-27T19:54:14.991Z,5.45
2022-07-27T19:56:43.110Z,7.60
2022-07-27T19:59:11.507Z,7.82
2022-07-27T20:01:41.784Z,5.00
2022-07-27T20:04:41.195Z,6.20
2022-07-27T20:07:32.807Z,5.40
2022-07-27T20:10:22.642Z,7.22
2022-07-27T20:12:52.782Z,6.93
2022-07-27T20:19:09.842Z,7.85
2022-07-27T20:21:55.871Z,6.70
2022-07-27T20:27:28.399Z,8.10
2022-07-27T20:29:56.548Z,3.75
2022-07-27T20:32:24.818Z,6.60
2022-07-27T20:34:55.934Z,6.32
2022-07-27T20:37:25.656Z,9.48
2022-07-27T20:39:54.025Z,12.70
2022-07-27T20:42:22.164Z,10.65
2022-07-27T20:44:50.290Z,8.55
2022-07-27T20:47:18.435Z,7.72
2022-07-27T20:49:46.601Z,5.53
2022-07-27T20:52:15.023Z,6.80
2022-07-27T20:54:44.629Z,8.27
2022-07-27T20:57:12.729Z,10.75
2022-07-27T20:59:40.876Z,6.40
2022-07-27T21:02:30.390Z,5.03
2022-07-27T21:05:02.852Z,5.45
2022-07-27T21:07:31.485Z,7.93
2022-07-27T21:10:02.664Z,7.05
2022-07-27T21:12:40.960Z,7.82
2022-07-27T21:15:13.566Z,8.48
2022-07-27T21:17:43.532Z,5.60
2022-07-27T21:20:18.541Z,10.35
2022-07-27T21:22:46.628Z,7.82
2022-07-27T21:25:18.670Z,9.45
2022-07-27T21:27:57.842Z,10.23
2022-07-27T21:30:27.727Z,2.75
2022-07-27T21:32:55.978Z,5.40
2022-07-27T21:35:32.175Z,5.45
2022-07-27T21:38:03.248Z,9.43
2022-07-27T21:43:36.588Z,6.32
2022-07-27T21:46:06.103Z,5.47
2022-07-27T21:48:36.251Z,7.25
2022-07-27T21:51:19.426Z,7.20
2022-07-27T21:53:50.639Z,6.57
2022-07-27T21:56:22.404Z,7.35
2022-07-27T21:58:53.076Z,10.18
2022-07-27T22:01:23.322Z,3.75
2022-07-27T22:03:53.328Z,12.85
2022-07-27T22:06:22.146Z,8.43
2022-07-27T22:08:50.272Z,9.70
2022-07-27T22:11:18.386Z,7.80
2022-07-27T22:13:47.849Z,5.85
2022-07-27T22:16:16.031Z,8.98
2022-07-27T22:18:44.160Z,8.45
2022-07-27T22:21:12.272Z,3.95
2022-07-27T22:23:41.187Z,9.80
2022-07-27T22:26:09.705Z,9.30
2022-07-27T22:28:38.950Z,3.28
2022-07-27T22:31:23.083Z,3.95
2022-07-27T22:33:51.623Z,8.30
2022-07-27T22:36:19.988Z,5.32
2022-07-27T22:38:48.146Z,13.48
2022-07-27T22:41:16.285Z,6.38
2022-07-27T22:43:44.388Z,4.70
2022-07-27T22:46:13.975Z,7.38
2022-07-27T22:48:42.139Z,5.60
2022-07-27T22:51:10.235Z,5.75
2022-07-27T22:53:39.548Z,7.38
2022-07-27T22:56:08.315Z,7.40
2022-07-27T22:58:36.383Z,8.52
2022-07-27T23:01:05.713Z,7.78
2022-07-27T23:03:35.772Z,3.17
2022-07-27T23:06:04.442Z,6.22
2022-07-27T23:08:33.581Z,6.20
2022-07-27T23:11:03.328Z,7.57
2022-07-27T23:13:34.041Z,6.88
2022-07-27T23:16:03.680Z,6.85
2022-07-27T23:18:39.199Z,6.03
2022-07-27T23:21:09.929Z,10.32
2022-07-27T23:23:53.705Z,7.10
2022-07-27T23:26:26.124Z,8.18
2022-07-27T23:29:03.058Z,6.43
2022-07-27T23:31:31.975Z,6.20
2022-07-27T23:34:04.989Z,6.38
2022-07-27T23:36:34.912Z,5.05
2022-07-27T23:39:03.753Z,6.43
2022-07-27T23:41:36.660Z,8.23
2022-07-27T23:44:05.092Z,8.45
2022-07-27T23:46:33.187Z,6.07
2022-07-27T23:49:01.386Z,4.88
2022-07-27T23:51:29.525Z,8.60
2022-07-27T23:53:58.996Z,5.50
2022-07-27T23:56:27.124Z,4.10
2022-07-27T23:58:55.188Z,4.55
